createdAt,value
2019-03-18T00:00:35.992Z,5.10
2019-03-18T00:03:03.582Z,5.10
2019-03-18T00:05:31.035Z,5.00
2019-03-18T00:07:58.524Z,5.00
2019-03-18T00:10:26.190Z,5.00
2019-03-18T00:12:53.626Z,5.00
2019-03-18T00:15:21.128Z,5.00
2019-03-18T00:17:48.613Z,4.90
2019-03-18T00:20:16.112Z,4.90
2019-03-18T00:22:43.588Z,4.90
2019-03-18T00:25:11.086Z,4.90
2019-03-18T00:27:38.585Z,4.90
2019-03-18T00:30:07.864Z,4.90
2019-03-18T00:32:35.328Z,4.90
2019-03-18T00:35:03.057Z,4.90
2019-03-18T00:37:30.550Z,4.80
2019-03-18T00:39:58.021Z,4.80
2019-03-18T00:42:25.518Z,4.80
2019-03-18T00:44:53.001Z,4.80
2019-03-18T00:47:20.506Z,4.80
2019-03-18T00:49:47.960Z,4.80
2019-03-18T00:52:15.475Z,4.80
2019-03-18T00:54:42.962Z,4.80
2019-03-18T00:57:10.433Z,4.80
2019-03-18T00:59:37.931Z,4.80
2019-03-18T01:02:05.430Z,4.70
2019-03-18T01:04:32.918Z,4.70
2019-03-18T01:07:00.488Z,4.70
2019-03-18T01:09:28.152Z,4.70
2019-03-18T01:11:55.714Z,4.70
2019-03-18T01:14:23.195Z,4.70
2019-03-18T01:16:50.695Z,4.60
2019-03-18T01:19:18.147Z,4.60
2019-03-18T01:21:45.832Z,4.60
2019-03-18T01:24:13.299Z,4.60
2019-03-18T01:26:40.788Z,4.50
2019-03-18T01:29:08.351Z,4.50
2019-03-18T01:31:35.864Z,4.50
2019-03-18T01:34:03.371Z,4.40
2019-03-18T01:36:30.843Z,4.40
2019-03-18T01:38:58.323Z,4.30
2019-03-18T01:41:25.854Z,4.30
2019-03-18T01:43:53.357Z,4.30
2019-03-18T01:46:20.807Z,4.30
2019-03-18T01:48:48.539Z,4.30
2019-03-18T01:51:16.002Z,4.20
2019-03-18T01:53:43.505Z,4.20
2019-03-18T01:56:11.001Z,4.20
2019-03-18T01:58:38.504Z,4.20
2019-03-18T02:01:06.134Z,4.20
2019-03-18T02:03:33.994Z,4.20
2019-03-18T02:06:01.452Z,4.20
2019-03-18T02:08:28.932Z,4.20
2019-03-18T02:10:56.438Z,4.20
2019-03-18T02:13:23.976Z,4.20
2019-03-18T02:15:53.587Z,4.20
2019-03-18T02:18:20.816Z,4.20
2019-03-18T02:20:48.311Z,4.20
2019-03-18T02:23:16.254Z,4.20
2019-03-18T02:25:43.809Z,4.20
2019-03-18T02:28:11.280Z,4.20
2019-03-18T02:30:41.741Z,4.20
2019-03-18T02:33:09.193Z,4.30
2019-03-18T02:35:36.823Z,4.30
2019-03-18T02:38:05.489Z,4.20
2019-03-18T02:40:33.058Z,4.30
2019-03-18T02:43:00.673Z,4.30
2019-03-18T02:45:28.141Z,4.30
2019-03-18T02:47:55.624Z,4.20
2019-03-18T02:50:23.437Z,4.30
2019-03-18T02:52:50.891Z,4.20
2019-03-18T02:55:18.469Z,4.30
2019-03-18T02:57:45.962Z,4.20
2019-03-18T03:00:13.640Z,4.20
2019-03-18T03:02:41.279Z,4.20
2019-03-18T03:05:09.286Z,4.20
2019-03-18T03:07:36.806Z,4.20
2019-03-18T03:10:05.142Z,4.10
2019-03-18T03:12:32.592Z,4.10
2019-03-18T03:15:00.245Z,4.10
2019-03-18T03:17:27.998Z,4.10
2019-03-18T03:19:55.454Z,4.10
2019-03-18T03:22:22.941Z,4.10
2019-03-18T03:24:50.443Z,4.10
2019-03-18T03:27:17.955Z,4.10
2019-03-18T03:29:45.541Z,4.10
2019-03-18T03:32:13.061Z,4.10
2019-03-18T03:34:40.542Z,4.00
2019-03-18T03:37:08.078Z,3.90
2019-03-18T03:39:35.565Z,3.90
2019-03-18T03:42:03.057Z,3.90
2019-03-18T03:44:30.702Z,3.90
2019-03-18T03:46:58.227Z,3.80
2019-03-18T03:49:25.795Z,3.80
2019-03-18T03:51:53.282Z,3.80
2019-03-18T03:54:20.767Z,3.80
2019-03-18T03:56:48.294Z,3.80
2019-03-18T03:59:15.875Z,3.80
2019-03-18T04:01:45.524Z,3.80
2019-03-18T04:04:13.062Z,3.80
2019-03-18T04:06:40.526Z,3.80
2019-03-18T04:09:08.000Z,3.70
2019-03-18T04:11:35.480Z,3.70
2019-03-18T04:14:02.964Z,3.70
2019-03-18T04:16:30.505Z,3.70
2019-03-18T04:18:58.123Z,4.30
2019-03-18T04:21:25.613Z,3.70
2019-03-18T04:23:54.941Z,3.70
2019-03-18T04:26:22.466Z,3.70
2019-03-18T04:28:49.927Z,3.60
2019-03-18T04:31:17.432Z,3.60
2019-03-18T04:33:44.937Z,3.60
2019-03-18T04:36:12.390Z,3.60
2019-03-18T04:38:39.862Z,3.60
2019-03-18T04:41:07.392Z,3.60
2019-03-18T04:43:34.862Z,3.60
2019-03-18T04:46:03.655Z,3.60
2019-03-18T04:48:31.122Z,3.50
2019-03-18T04:50:58.661Z,3.60
2019-03-18T04:53:26.086Z,3.60
2019-03-18T04:55:54.044Z,3.50
2019-03-18T04:58:21.648Z,3.50
2019-03-18T05:03:36.308Z,3.40
2019-03-18T05:06:03.776Z,3.40
2019-03-18T05:08:31.285Z,3.40
2019-03-18T05:10:58.799Z,3.40
2019-03-18T05:13:26.633Z,3.40
2019-03-18T05:15:54.275Z,3.40
2019-03-18T05:18:21.729Z,3.30
2019-03-18T05:20:49.218Z,3.30
2019-03-18T05:23:16.703Z,3.30
2019-03-18T05:25:44.250Z,3.30
2019-03-18T05:28:11.818Z,3.30
2019-03-18T05:30:39.297Z,3.30
2019-03-18T05:33:06.854Z,3.30
2019-03-18T05:35:34.334Z,3.30
2019-03-18T05:38:01.827Z,3.50
2019-03-18T05:40:29.359Z,3.30
2019-03-18T05:42:56.921Z,3.30
2019-03-18T05:45:24.465Z,3.30
2019-03-18T05:47:52.228Z,3.20
2019-03-18T05:50:19.681Z,3.20
2019-03-18T05:52:47.165Z,3.30
2019-03-18T05:55:17.505Z,3.20
2019-03-18T05:57:44.993Z,3.20
2019-03-18T06:00:13.875Z,3.30
2019-03-18T06:02:41.506Z,3.30
2019-03-18T06:05:09.114Z,3.30
2019-03-18T06:07:36.641Z,3.40
2019-03-18T06:10:04.906Z,3.30
2019-03-18T06:12:32.380Z,3.30
2019-03-18T06:14:59.882Z,3.30
2019-03-18T06:17:27.350Z,3.30
2019-03-18T06:19:54.891Z,3.30
2019-03-18T06:22:22.416Z,3.30
2019-03-18T06:24:49.911Z,3.30
2019-03-18T06:27:17.464Z,3.30
2019-03-18T06:29:44.925Z,3.30
2019-03-18T06:32:12.499Z,3.30
2019-03-18T06:34:40.001Z,3.40
2019-03-18T06:37:07.460Z,3.50
2019-03-18T06:39:34.938Z,3.40
2019-03-18T06:42:02.723Z,3.50
2019-03-18T06:44:30.215Z,3.50
2019-03-18T06:46:57.714Z,3.50
2019-03-18T06:49:25.221Z,3.60
2019-03-18T06:51:52.741Z,3.60
2019-03-18T06:54:20.238Z,3.70
2019-03-18T06:56:47.693Z,3.70
2019-03-18T06:59:15.159Z,3.70
2019-03-18T07:01:42.980Z,3.80
2019-03-18T07:04:12.085Z,3.80
2019-03-18T07:06:39.527Z,3.90
2019-03-18T07:09:07.060Z,3.90
2019-03-18T07:11:34.586Z,4.00
2019-03-18T07:14:02.026Z,4.00
2019-03-18T07:16:29.538Z,4.10
2019-03-18T07:18:57.096Z,4.10
2019-03-18T07:21:24.580Z,4.10
2019-03-18T07:23:52.074Z,4.20
2019-03-18T07:26:19.555Z,4.20
2019-03-18T07:28:49.314Z,4.30
2019-03-18T07:31:16.820Z,4.40
2019-03-18T07:33:44.394Z,4.40
2019-03-18T07:36:11.885Z,4.50
2019-03-18T07:38:39.339Z,4.50
2019-03-18T07:41:06.814Z,4.50
2019-03-18T07:43:34.302Z,4.60
2019-03-18T07:46:01.777Z,4.70
2019-03-18T07:48:31.185Z,4.90
2019-03-18T07:51:18.014Z,5.10
2019-03-18T07:53:45.523Z,5.50
2019-03-18T07:56:12.999Z,5.60
2019-03-18T07:58:40.537Z,5.70
2019-03-18T08:01:08.041Z,5.70
2019-03-18T08:03:36.720Z,5.50
2019-03-18T08:06:04.395Z,5.40
2019-03-18T08:08:31.901Z,5.60
2019-03-18T08:10:59.401Z,5.80
2019-03-18T08:13:26.906Z,5.70
2019-03-18T08:15:54.419Z,5.80
2019-03-18T08:18:21.903Z,5.90
2019-03-18T08:20:49.413Z,5.90
2019-03-18T08:23:16.918Z,5.90
2019-03-18T08:25:44.378Z,5.90
2019-03-18T08:28:11.891Z,6.10
2019-03-18T08:30:39.390Z,6.30
2019-03-18T08:33:06.899Z,6.60
2019-03-18T08:35:34.396Z,6.80
2019-03-18T08:38:01.877Z,7.00
2019-03-18T08:40:29.391Z,7.00
2019-03-18T08:42:56.886Z,6.80
2019-03-18T08:45:24.383Z,6.40
2019-03-18T08:47:51.909Z,6.40
2019-03-18T08:50:19.387Z,6.30
2019-03-18T08:52:46.893Z,6.20
2019-03-18T08:55:14.365Z,6.10
2019-03-18T08:57:41.870Z,5.90
2019-03-18T09:00:10.052Z,5.80
2019-03-18T09:02:37.908Z,5.70
2019-03-18T09:05:05.423Z,5.70
2019-03-18T09:07:32.899Z,5.60
2019-03-18T09:10:00.415Z,5.70
2019-03-18T09:12:27.871Z,5.90
2019-03-18T09:14:55.344Z,5.90
2019-03-18T09:17:22.852Z,6.30
2019-03-18T09:19:50.299Z,7.60
2019-03-18T09:22:17.850Z,8.70
2019-03-18T09:24:45.369Z,9.50
2019-03-18T09:27:12.942Z,10.40
2019-03-18T09:29:40.496Z,10.20
2019-03-18T09:32:08.017Z,9.20
2019-03-18T09:34:37.057Z,8.60
2019-03-18T09:37:04.594Z,7.80
2019-03-18T09:39:32.099Z,7.40
2019-03-18T09:41:59.786Z,7.20
2019-03-18T09:44:27.278Z,7.90
2019-03-18T09:46:54.745Z,7.70
2019-03-18T09:49:22.386Z,7.60
2019-03-18T09:51:49.888Z,8.30
2019-03-18T09:54:17.377Z,8.50
2019-03-18T09:56:44.933Z,9.10
2019-03-18T09:59:12.459Z,8.80
2019-03-18T10:01:40.006Z,8.80
2019-03-18T10:04:07.501Z,8.40
2019-03-18T10:06:35.020Z,7.90
2019-03-18T10:09:04.414Z,7.70
2019-03-18T10:11:31.890Z,7.20
2019-03-18T10:13:59.404Z,6.90
2019-03-18T10:16:26.904Z,6.70
2019-03-18T10:18:54.411Z,6.60
2019-03-18T10:21:22.277Z,6.60
2019-03-18T10:23:49.797Z,6.30
2019-03-18T10:26:17.284Z,5.80
2019-03-18T10:28:44.795Z,5.30
2019-03-18T10:31:12.289Z,5.10
2019-03-18T10:33:39.814Z,4.90
2019-03-18T10:36:07.268Z,4.80
2019-03-18T10:38:34.796Z,4.70
2019-03-18T10:41:02.313Z,4.60
2019-03-18T10:43:29.773Z,4.70
2019-03-18T10:45:57.302Z,4.90
2019-03-18T10:48:24.767Z,5.80
2019-03-18T10:50:52.349Z,7.10
2019-03-18T10:53:19.943Z,8.40
2019-03-18T10:55:47.531Z,9.50
2019-03-18T10:58:17.892Z,9.50
2019-03-18T11:00:44.358Z,8.60
2019-03-18T11:03:11.908Z,8.00
2019-03-18T11:05:39.366Z,7.80
2019-03-18T11:08:06.870Z,7.50
2019-03-18T11:10:34.369Z,7.40
2019-03-18T11:13:01.824Z,7.60
2019-03-18T11:15:29.332Z,8.10
2019-03-18T11:17:56.908Z,8.10
2019-03-18T11:20:24.376Z,7.40
2019-03-18T11:22:51.894Z,7.10
2019-03-18T11:25:19.424Z,6.90
2019-03-18T11:27:46.849Z,7.20
2019-03-18T11:30:14.581Z,7.10
2019-03-18T11:32:42.081Z,6.70
2019-03-18T11:35:09.601Z,6.70
2019-03-18T11:37:37.116Z,6.80
2019-03-18T11:40:05.221Z,6.80
2019-03-18T11:42:32.871Z,6.70
2019-03-18T11:45:00.436Z,6.50
2019-03-18T11:47:27.874Z,6.40
2019-03-18T11:49:55.547Z,6.30
2019-03-18T11:52:22.994Z,6.60
2019-03-18T11:54:50.467Z,7.20
2019-03-18T11:57:18.375Z,7.10
2019-03-18T11:59:46.901Z,7.90
2019-03-18T12:02:26.965Z,8.80
2019-03-18T12:04:43.912Z,7.30
2019-03-18T12:07:11.365Z,7.00
2019-03-18T12:09:38.869Z,6.90
2019-03-18T12:12:06.331Z,7.00
2019-03-18T12:14:33.800Z,6.90
2019-03-18T12:17:01.328Z,7.10
2019-03-18T12:19:28.814Z,6.80
2019-03-18T12:21:56.283Z,7.10
2019-03-18T12:24:23.806Z,7.60
2019-03-18T12:26:51.326Z,8.00
2019-03-18T12:29:18.860Z,8.00
2019-03-18T12:31:46.396Z,8.30
2019-03-18T12:34:13.889Z,8.80
2019-03-18T12:36:41.383Z,9.10
2019-03-18T12:39:08.852Z,9.20
2019-03-18T12:41:36.366Z,9.80
2019-03-18T12:44:04.229Z,10.20
2019-03-18T12:46:31.698Z,10.30
2019-03-18T12:48:59.185Z,9.40
2019-03-18T12:51:26.702Z,8.80
2019-03-18T12:53:54.195Z,8.70
2019-03-18T12:56:21.660Z,8.50
2019-03-18T12:58:49.168Z,8.50
2019-03-18T13:01:16.699Z,8.40
2019-03-18T13:03:44.175Z,8.30
2019-03-18T13:06:11.627Z,8.30
2019-03-18T13:08:39.166Z,8.30
2019-03-18T13:11:06.633Z,8.40
2019-03-18T13:13:34.416Z,8.30
2019-03-18T13:16:01.884Z,8.30
2019-03-18T13:18:29.427Z,8.10
2019-03-18T13:21:07.275Z,7.90
2019-03-18T13:23:26.192Z,7.80
2019-03-18T13:25:53.667Z,7.70
2019-03-18T13:28:21.175Z,7.70
2019-03-18T13:30:48.678Z,7.50
2019-03-18T13:33:16.113Z,7.60
2019-03-18T13:35:43.596Z,8.20
2019-03-18T13:38:11.212Z,8.20
2019-03-18T13:40:38.706Z,8.40
2019-03-18T13:43:06.180Z,8.60
2019-03-18T13:45:33.699Z,9.20
2019-03-18T13:48:01.157Z,9.80
2019-03-18T13:50:28.590Z,10.20
2019-03-18T13:52:56.112Z,10.10
2019-03-18T13:55:23.627Z,9.70
2019-03-18T13:57:51.137Z,9.70
2019-03-18T14:00:18.758Z,10.20
2019-03-18T14:02:46.245Z,9.90
2019-03-18T14:05:13.848Z,9.60
2019-03-18T14:07:42.329Z,9.20
2019-03-18T14:10:11.190Z,8.70
2019-03-18T14:12:38.665Z,8.30
2019-03-18T14:15:07.954Z,8.20
2019-03-18T14:17:35.487Z,8.10
2019-03-18T14:20:03.825Z,8.10
2019-03-18T14:22:31.319Z,8.10
2019-03-18T14:24:58.797Z,8.20
2019-03-18T14:27:26.292Z,8.30
2019-03-18T14:29:53.807Z,8.30
2019-03-18T14:32:21.271Z,8.70
2019-03-18T14:34:48.821Z,8.70
2019-03-18T14:37:16.295Z,8.70
2019-03-18T14:39:43.767Z,8.50
2019-03-18T14:42:11.293Z,8.30
2019-03-18T14:44:38.816Z,8.20
2019-03-18T14:47:08.763Z,8.20
2019-03-18T14:49:36.261Z,8.10
2019-03-18T14:52:03.727Z,8.20
2019-03-18T14:54:31.207Z,8.20
2019-03-18T14:56:58.736Z,8.30
2019-03-18T14:59:26.212Z,8.50
2019-03-18T15:01:53.691Z,8.70
2019-03-18T15:04:21.220Z,9.00
2019-03-18T15:06:48.697Z,9.60
2019-03-18T15:09:16.191Z,10.00
2019-03-18T15:11:43.720Z,10.00
2019-03-18T15:14:11.175Z,10.20
2019-03-18T15:16:38.675Z,10.40
2019-03-18T15:19:06.196Z,10.40
2019-03-18T15:21:33.658Z,10.30
2019-03-18T15:24:01.188Z,10.00
2019-03-18T15:26:28.655Z,9.80
2019-03-18T15:28:56.134Z,9.60
2019-03-18T15:31:23.639Z,9.60
2019-03-18T15:33:51.108Z,9.80
2019-03-18T15:36:18.715Z,9.60
2019-03-18T15:38:46.177Z,9.30
2019-03-18T15:41:13.646Z,9.40
2019-03-18T15:43:41.161Z,9.60
2019-03-18T15:46:08.656Z,9.80
2019-03-18T15:48:36.157Z,9.80
2019-03-18T15:51:03.660Z,9.50
2019-03-18T15:53:31.114Z,9.00
2019-03-18T15:55:58.589Z,8.60
2019-03-18T15:58:26.090Z,8.30
2019-03-18T16:00:53.626Z,8.10
2019-03-18T16:03:21.109Z,8.00
2019-03-18T16:05:48.647Z,7.90
2019-03-18T16:08:16.101Z,7.80
2019-03-18T16:10:43.616Z,7.80
2019-03-18T16:13:11.137Z,7.80
2019-03-18T16:15:38.573Z,8.00
2019-03-18T16:18:06.154Z,8.00
2019-03-18T16:20:33.572Z,8.00
2019-03-18T16:23:01.087Z,7.90
2019-03-18T16:25:28.504Z,7.90
2019-03-18T16:27:56.262Z,7.70
2019-03-18T16:30:23.959Z,7.60
2019-03-18T16:32:51.452Z,7.50
2019-03-18T16:35:18.957Z,7.40
2019-03-18T16:37:46.493Z,7.30
2019-03-18T16:40:14.254Z,7.20
2019-03-18T16:42:41.780Z,7.10
2019-03-18T16:45:10.444Z,7.00
2019-03-18T16:47:37.940Z,6.90
2019-03-18T16:50:06.793Z,6.90
2019-03-18T16:52:35.988Z,6.70
2019-03-18T16:55:03.934Z,6.70
2019-03-18T16:57:31.417Z,6.70
2019-03-18T16:59:58.907Z,6.60
2019-03-18T17:02:26.407Z,6.60
2019-03-18T17:04:53.889Z,6.50
2019-03-18T17:07:21.316Z,6.50
2019-03-18T17:09:48.777Z,6.40
2019-03-18T17:12:16.239Z,6.30
2019-03-18T17:14:43.753Z,6.20
2019-03-18T17:17:11.227Z,6.20
2019-03-18T17:19:38.692Z,6.30
2019-03-18T17:22:06.194Z,6.20
2019-03-18T17:24:33.688Z,6.20
2019-03-18T17:27:01.267Z,6.10
2019-03-18T17:29:28.773Z,6.00
2019-03-18T17:31:56.281Z,5.90
2019-03-18T17:34:23.769Z,5.80
2019-03-18T17:36:51.290Z,5.80
2019-03-18T17:39:18.826Z,5.70
2019-03-18T17:41:49.326Z,5.60
2019-03-18T17:44:16.830Z,4.80
2019-03-18T17:46:44.370Z,5.50
2019-03-18T17:49:11.840Z,5.50
2019-03-18T17:51:39.342Z,5.40
2019-03-18T17:54:06.840Z,5.40
2019-03-18T17:57:06.389Z,5.30
2019-03-18T17:59:23.093Z,5.00
2019-03-18T18:01:50.588Z,5.00
2019-03-18T18:04:18.150Z,4.90
2019-03-18T18:06:45.615Z,4.80
2019-03-18T18:09:13.088Z,4.70
2019-03-18T18:11:43.058Z,4.70
2019-03-18T18:14:09.884Z,4.60
2019-03-18T18:16:37.447Z,4.70
2019-03-18T18:19:04.903Z,4.50
2019-03-18T18:21:32.385Z,4.40
2019-03-18T18:23:59.872Z,4.20
2019-03-18T18:26:27.624Z,4.10
2019-03-18T18:28:55.142Z,3.90
2019-03-18T18:31:22.622Z,3.80
2019-03-18T18:33:50.217Z,3.70
2019-03-18T18:36:17.682Z,3.70
2019-03-18T18:38:45.204Z,3.60
2019-03-18T18:41:12.683Z,3.40
2019-03-18T18:43:40.132Z,3.30
2019-03-18T18:46:07.649Z,3.20
2019-03-18T18:48:35.142Z,3.10
2019-03-18T18:51:02.620Z,3.00
2019-03-18T18:53:30.145Z,2.90
2019-03-18T18:55:57.623Z,2.80
2019-03-18T18:58:25.102Z,2.80
2019-03-18T19:00:52.638Z,2.60
2019-03-18T19:03:20.145Z,2.50
2019-03-18T19:05:47.627Z,2.40
2019-03-18T19:08:15.186Z,2.40
2019-03-18T19:10:42.727Z,2.30
2019-03-18T19:13:10.202Z,2.30
2019-03-18T19:15:37.766Z,2.20
2019-03-18T19:18:05.293Z,2.20
2019-03-18T19:20:32.893Z,2.20
2019-03-18T19:23:00.351Z,2.40
2019-03-18T19:25:27.870Z,2.60
2019-03-18T19:27:55.346Z,2.80
2019-03-18T19:30:23.052Z,2.90
2019-03-18T19:32:50.860Z,2.90
2019-03-18T19:35:18.354Z,3.10
2019-03-18T19:37:45.843Z,3.10
2019-03-18T19:40:13.474Z,3.10
2019-03-18T19:42:40.991Z,3.10
2019-03-18T19:45:09.920Z,3.10
2019-03-18T19:47:37.398Z,3.00
2019-03-18T19:50:06.120Z,3.00
2019-03-18T19:52:33.549Z,3.00
2019-03-18T19:55:01.014Z,3.10
2019-03-18T19:57:28.595Z,3.20
2019-03-18T19:59:56.091Z,3.20
2019-03-18T20:02:23.553Z,3.60
2019-03-18T20:04:51.096Z,3.20
2019-03-18T20:07:18.570Z,3.20
2019-03-18T20:09:46.089Z,3.20
2019-03-18T20:12:13.598Z,3.10
2019-03-18T20:14:41.205Z,3.10
2019-03-18T20:17:08.722Z,3.10
2019-03-18T20:19:36.235Z,3.10
2019-03-18T20:22:03.733Z,3.00
2019-03-18T20:24:31.226Z,2.90
2019-03-18T20:26:58.743Z,2.90
2019-03-18T20:29:26.241Z,3.20
2019-03-18T20:31:53.753Z,2.90
2019-03-18T20:34:21.552Z,2.80
2019-03-18T20:36:49.148Z,2.70
2019-03-18T20:39:16.673Z,2.70
2019-03-18T20:41:44.134Z,2.50
2019-03-18T20:44:11.631Z,2.50
2019-03-18T20:46:39.140Z,2.50
2019-03-18T20:49:06.625Z,2.60
2019-03-18T20:51:34.136Z,2.70
2019-03-18T20:54:11.605Z,2.70
2019-03-18T20:56:31.142Z,2.70
2019-03-18T20:58:58.620Z,2.70
2019-03-18T21:01:26.076Z,2.70
2019-03-18T21:03:53.629Z,2.70
2019-03-18T21:06:21.123Z,2.80
2019-03-18T21:08:48.660Z,2.80
2019-03-18T21:11:16.163Z,3.10
2019-03-18T21:13:43.753Z,3.20
2019-03-18T21:16:11.232Z,3.40
2019-03-18T21:18:38.727Z,3.40
2019-03-18T21:21:06.213Z,3.40
2019-03-18T21:23:33.735Z,3.40
2019-03-18T21:26:01.250Z,3.30
2019-03-18T21:28:28.736Z,3.20
2019-03-18T21:30:56.195Z,3.00
2019-03-18T21:33:23.733Z,2.90
2019-03-18T21:35:54.618Z,2.90
2019-03-18T21:38:20.521Z,2.80
2019-03-18T21:40:48.051Z,2.70
2019-03-18T21:43:15.631Z,2.60
2019-03-18T21:45:43.147Z,2.50
2019-03-18T21:48:10.615Z,2.30
2019-03-18T21:50:38.196Z,2.20
2019-03-18T21:53:05.672Z,2.20
2019-03-18T21:55:33.147Z,2.20
2019-03-18T21:58:00.621Z,2.10
2019-03-18T22:00:28.404Z,2.00
2019-03-18T22:02:55.896Z,1.90
2019-03-18T22:05:23.395Z,1.80
2019-03-18T22:07:50.894Z,1.70
2019-03-18T22:10:18.389Z,1.60
2019-03-18T22:12:46.909Z,1.60
2019-03-18T22:15:14.601Z,1.50
2019-03-18T22:17:42.065Z,1.30
2019-03-18T22:20:11.078Z,1.30
2019-03-18T22:22:38.843Z,1.20
2019-03-18T22:25:06.694Z,1.10
2019-03-18T22:27:34.181Z,1.10
2019-03-18T22:30:02.071Z,1.20
2019-03-18T22:32:29.509Z,1.20
2019-03-18T22:34:56.981Z,1.20
2019-03-18T22:37:24.602Z,1.20
2019-03-18T22:39:52.065Z,1.20
2019-03-18T22:42:19.580Z,1.50
2019-03-18T22:44:47.092Z,1.50
2019-03-18T22:47:14.571Z,1.40
2019-03-18T22:49:42.073Z,1.50
2019-03-18T22:52:11.273Z,1.60
2019-03-18T22:54:38.786Z,1.60
2019-03-18T22:57:06.281Z,1.60
2019-03-18T22:59:33.795Z,1.60
2019-03-18T23:02:01.268Z,1.60
2019-03-18T23:04:28.741Z,1.50
2019-03-18T23:06:56.275Z,1.50
2019-03-18T23:09:23.757Z,1.40
2019-03-18T23:11:51.224Z,1.40
2019-03-18T23:14:18.706Z,1.50
2019-03-18T23:16:46.501Z,1.60
2019-03-18T23:19:14.001Z,1.60
2019-03-18T23:21:41.494Z,1.60
2019-03-18T23:24:09.014Z,1.70
2019-03-18T23:26:36.505Z,1.70
2019-03-18T23:29:04.003Z,1.70
2019-03-18T23:31:31.505Z,1.80
2019-03-18T23:33:58.980Z,1.90
2019-03-18T23:36:26.442Z,1.90
2019-03-18T23:38:54.218Z,2.30
2019-03-18T23:41:21.689Z,2.00
2019-03-18T23:43:49.149Z,2.00
2019-03-18T23:46:16.651Z,1.90
2019-03-18T23:48:46.194Z,1.80
2019-03-18T23:51:13.843Z,1.80
2019-03-18T23:53:41.431Z,1.70
2019-03-18T23:56:08.907Z,1.60
2019-03-18T23:58:36.403Z,1.50
